sensor_id;sensor_type;location;lat;lon;timestamp;P1;durP1;ratioP1;P2;durP2;ratioP2
5630;SDS011;2837;50.990;7.124;2023-03-31T05:01:36;155.23;;;7.27;;
5630;SDS011;2837;50.990;7.124;2023-03-31T05:04:03;154.30;;;7.90;;
5630;SDS011;2837;50.990;7.124;2023-03-31T05:06:29;153.87;;;7.50;;
5630;SDS011;2837;50.990;7.124;2023-03-31T05:08:55;154.67;;;7.43;;
5630;SDS011;2837;50.990;7.124;2023-03-31T05:11:21;153.30;;;7.30;;
5630;SDS011;2837;50.990;7.124;2023-03-31T05:13:46;155.97;;;7.63;;
5630;SDS011;2837;50.990;7.124;2023-03-31T05:16:12;153.17;;;6.93;;
5630;SDS011;2837;50.990;7.124;2023-03-31T05:18:39;153.07;;;7.40;;
5630;SDS011;2837;50.990;7.124;2023-03-31T05:21:11;151.77;;;7.30;;
5630;SDS011;2837;50.990;7.124;2023-03-31T05:23:38;154.03;;;7.33;;
5630;SDS011;2837;50.990;7.124;2023-03-31T05:26:04;155.17;;;7.30;;
5630;SDS011;2837;50.990;7.124;2023-03-31T05:28:31;154.10;;;7.30;;
5630;SDS011;2837;50.990;7.124;2023-03-31T05:30:58;154.90;;;7.33;;
5630;SDS011;2837;50.990;7.124;2023-03-31T05:33:25;155.07;;;7.10;;
5630;SDS011;2837;50.990;7.124;2023-03-31T05:35:51;153.67;;;7.87;;
5630;SDS011;2837;50.990;7.124;2023-03-31T05:38:16;153.10;;;7.30;;
5630;SDS011;2837;50.990;7.124;2023-03-31T05:40:42;154.00;;;7.10;;
5630;SDS011;2837;50.990;7.124;2023-03-31T05:43:07;154.47;;;7.97;;
5630;SDS011;2837;50.990;7.124;2023-03-31T05:45:33;153.40;;;7.30;;
5630;SDS011;2837;50.990;7.124;2023-03-31T05:47:58;155.30;;;7.57;;
5630;SDS011;2837;50.990;7.124;2023-03-31T05:50:24;152.47;;;7.00;;
5630;SDS011;2837;50.990;7.124;2023-03-31T05:52:50;154.17;;;6.80;;
5630;SDS011;2837;50.990;7.124;2023-03-31T05:55:15;155.27;;;6.90;;
5630;SDS011;2837;50.990;7.124;2023-03-31T05:57:41;155.40;;;7.73;;
5630;SDS011;2837;50.990;7.124;2023-03-31T06:00:06;153.30;;;7.37;;
5630;SDS011;2837;50.990;7.124;2023-03-31T06:02:34;152.30;;;7.37;;
5630;SDS011;2837;50.990;7.124;2023-03-31T06:05:00;152.40;;;7.50;;
5630;SDS011;2837;50.990;7.124;2023-03-31T06:07:26;152.37;;;7.00;;
5630;SDS011;2837;50.990;7.124;2023-03-31T06:09:51;152.20;;;7.37;;
5630;SDS011;2837;50.990;7.124;2023-03-31T06:12:17;153.17;;;8.30;;
5630;SDS011;2837;50.990;7.124;2023-03-31T06:14:43;154.37;;;7.80;;
5630;SDS011;2837;50.990;7.124;2023-03-31T06:17:09;156.23;;;8.93;;
5630;SDS011;2837;50.990;7.124;2023-03-31T06:19:34;154.97;;;7.67;;
5630;SDS011;2837;50.990;7.124;2023-03-31T06:22:00;152.07;;;7.30;;
5630;SDS011;2837;50.990;7.124;2023-03-31T06:24:26;151.83;;;6.97;;
5630;SDS011;2837;50.990;7.124;2023-03-31T06:26:51;152.47;;;7.63;;
5630;SDS011;2837;50.990;7.124;2023-03-31T06:29:17;154.17;;;6.90;;
5630;SDS011;2837;50.990;7.124;2023-03-31T06:31:43;151.63;;;6.53;;
5630;SDS011;2837;50.990;7.124;2023-03-31T06:34:08;152.87;;;7.03;;
5630;SDS011;2837;50.990;7.124;2023-03-31T06:36:34;151.70;;;6.80;;
5630;SDS011;2837;50.990;7.124;2023-03-31T06:38:59;152.30;;;7.50;;
5630;SDS011;2837;50.990;7.124;2023-03-31T06:41:25;153.50;;;7.20;;
5630;SDS011;2837;50.990;7.124;2023-03-31T06:43:51;151.73;;;7.43;;
5630;SDS011;2837;50.990;7.124;2023-03-31T06:46:16;152.47;;;7.30;;
5630;SDS011;2837;50.990;7.124;2023-03-31T06:48:42;151.77;;;6.80;;
5630;SDS011;2837;50.990;7.124;2023-03-31T06:51:08;152.23;;;7.40;;
5630;SDS011;2837;50.990;7.124;2023-03-31T06:53:34;152.07;;;7.20;;
5630;SDS011;2837;50.990;7.124;2023-03-31T06:56:00;151.60;;;6.63;;
5630;SDS011;2837;50.990;7.124;2023-03-31T06:58:26;150.97;;;6.30;;
5630;SDS011;2837;50.990;7.124;2023-03-31T07:00:52;151.17;;;6.80;;
5630;SDS011;2837;50.990;7.124;2023-03-31T07:03:18;151.13;;;6.63;;
5630;SDS011;2837;50.990;7.124;2023-03-31T07:05:52;152.20;;;7.33;;
5630;SDS011;2837;50.990;7.124;2023-03-31T07:08:19;152.47;;;6.47;;
5630;SDS011;2837;50.990;7.124;2023-03-31T07:10:45;154.00;;;6.87;;
5630;SDS011;2837;50.990;7.124;2023-03-31T07:13:12;151.30;;;6.77;;
5630;SDS011;2837;50.990;7.124;2023-03-31T07:15:39;152.07;;;6.90;;
5630;SDS011;2837;50.990;7.124;2023-03-31T07:18:05;151.03;;;6.70;;
5630;SDS011;2837;50.990;7.124;2023-03-31T07:20:31;151.67;;;6.80;;
5630;SDS011;2837;50.990;7.124;2023-03-31T07:22:57;152.60;;;7.10;;
5630;SDS011;2837;50.990;7.124;2023-03-31T07:25:23;151.80;;;6.90;;
5630;SDS011;2837;50.990;7.124;2023-03-31T07:27:49;150.37;;;6.17;;
5630;SDS011;2837;50.990;7.124;2023-03-31T07:30:16;149.97;;;6.23;;
5630;SDS011;2837;50.990;7.124;2023-03-31T07:32:47;151.90;;;7.33;;
5630;SDS011;2837;50.990;7.124;2023-03-31T07:35:13;151.23;;;6.97;;
5630;SDS011;2837;50.990;7.124;2023-03-31T07:37:41;151.47;;;7.67;;
5630;SDS011;2837;50.990;7.124;2023-03-31T07:40:09;151.43;;;7.00;;
5630;SDS011;2837;50.990;7.124;2023-03-31T07:42:40;159.17;;;6.83;;
5630;SDS011;2837;50.990;7.124;2023-03-31T07:45:06;150.47;;;6.70;;
5630;SDS011;2837;50.990;7.124;2023-03-31T07:47:32;150.33;;;6.70;;
5630;SDS011;2837;50.990;7.124;2023-03-31T07:49:58;154.10;;;7.50;;
5630;SDS011;2837;50.990;7.124;2023-03-31T07:52:23;150.07;;;6.50;;
5630;SDS011;2837;50.990;7.124;2023-03-31T07:54:49;150.90;;;7.50;;
5630;SDS011;2837;50.990;7.124;2023-03-31T07:57:15;151.23;;;7.10;;
5630;SDS011;2837;50.990;7.124;2023-03-31T07:59:43;150.87;;;7.00;;
5630;SDS011;2837;50.990;7.124;2023-03-31T08:02:10;151.13;;;7.63;;
5630;SDS011;2837;50.990;7.124;2023-03-31T08:04:37;151.03;;;6.90;;
5630;SDS011;2837;50.990;7.124;2023-03-31T08:07:06;152.50;;;7.63;;
5630;SDS011;2837;50.990;7.124;2023-03-31T08:09:32;151.37;;;7.00;;
5630;SDS011;2837;50.990;7.124;2023-03-31T08:11:58;151.30;;;7.20;;
5630;SDS011;2837;50.990;7.124;2023-03-31T08:14:24;151.20;;;6.67;;
5630;SDS011;2837;50.990;7.124;2023-03-31T08:16:49;150.90;;;7.47;;
5630;SDS011;2837;50.990;7.124;2023-03-31T08:19:17;150.97;;;7.23;;
5630;SDS011;2837;50.990;7.124;2023-03-31T08:21:42;152.50;;;6.77;;
5630;SDS011;2837;50.990;7.124;2023-03-31T08:24:08;156.97;;;7.57;;
5630;SDS011;2837;50.990;7.124;2023-03-31T08:26:33;151.47;;;7.67;;
5630;SDS011;2837;50.990;7.124;2023-03-31T08:28:59;151.47;;;7.53;;
5630;SDS011;2837;50.990;7.124;2023-03-31T08:31:25;150.67;;;7.43;;
5630;SDS011;2837;50.990;7.124;2023-03-31T08:33:53;150.30;;;7.67;;
5630;SDS011;2837;50.990;7.124;2023-03-31T08:36:19;150.77;;;6.67;;
5630;SDS011;2837;50.990;7.124;2023-03-31T08:38:44;150.87;;;7.30;;
5630;SDS011;2837;50.990;7.124;2023-03-31T08:41:15;150.57;;;7.50;;
5630;SDS011;2837;50.990;7.124;2023-03-31T08:43:57;149.77;;;6.80;;
5630;SDS011;2837;50.990;7.124;2023-03-31T08:46:27;150.57;;;7.10;;
5630;SDS011;2837;50.990;7.124;2023-03-31T08:48:55;150.17;;;7.00;;
5630;SDS011;2837;50.990;7.124;2023-03-31T08:51:23;150.97;;;7.60;;
5630;SDS011;2837;50.990;7.124;2023-03-31T08:54:00;151.97;;;8.00;;
5630;SDS011;2837;50.990;7.124;2023-03-31T08:56:33;152.47;;;7.57;;
5630;SDS011;2837;50.990;7.124;2023-03-31T08:59:04;149.67;;;6.80;;
5630;SDS011;2837;50.990;7.124;2023-03-31T09:15:54;150.60;;;7.47;;
5630;SDS011;2837;50.990;7.124;2023-03-31T09:18:27;152.07;;;7.70;;
5630;SDS011;2837;50.990;7.124;2023-03-31T09:21:02;154.97;;;8.00;;
5630;SDS011;2837;50.990;7.124;2023-03-31T09:28:50;154.47;;;7.23;;
5630;SDS011;2837;50.990;7.124;2023-03-31T09:31:18;151.53;;;7.57;;
5630;SDS011;2837;50.990;7.124;2023-03-31T09:33:46;152.43;;;7.87;;
5630;SDS011;2837;50.990;7.124;2023-03-31T09:36:16;152.57;;;7.53;;
5630;SDS011;2837;50.990;7.124;2023-03-31T09:38:46;149.17;;;7.00;;
5630;SDS011;2837;50.990;7.124;2023-03-31T09:41:13;153.43;;;7.30;;
5630;SDS011;2837;50.990;7.124;2023-03-31T09:43:40;153.30;;;7.57;;
5630;SDS011;2837;50.990;7.124;2023-03-31T09:48:59;151.67;;;7.40;;
5630;SDS011;2837;50.990;7.124;2023-03-31T09:51:31;152.67;;;7.43;;
5630;SDS011;2837;50.990;7.124;2023-03-31T09:54:06;154.23;;;7.97;;
5630;SDS011;2837;50.990;7.124;2023-03-31T09:57:21;149.27;;;7.77;;
5630;SDS011;2837;50.990;7.124;2023-03-31T10:02:38;149.57;;;7.27;;
5630;SDS011;2837;50.990;7.124;2023-03-31T10:10:56;151.57;;;7.53;;
5630;SDS011;2837;50.990;7.124;2023-03-31T10:13:47;152.80;;;7.83;;
5630;SDS011;2837;50.990;7.124;2023-03-31T10:16:42;150.67;;;7.43;;
5630;SDS011;2837;50.990;7.124;2023-03-31T10:19:20;153.97;;;7.43;;
5630;SDS011;2837;50.990;7.124;2023-03-31T10:22:05;152.73;;;7.63;;
5630;SDS011;2837;50.990;7.124;2023-03-31T10:24:40;154.57;;;7.83;;
5630;SDS011;2837;50.990;7.124;2023-03-31T10:27:28;154.90;;;7.80;;
5630;SDS011;2837;50.990;7.124;2023-03-31T10:29:59;155.07;;;8.63;;
5630;SDS011;2837;50.990;7.124;2023-03-31T10:32:33;155.03;;;7.17;;
5630;SDS011;2837;50.990;7.124;2023-03-31T10:35:06;150.60;;;7.73;;
5630;SDS011;2837;50.990;7.124;2023-03-31T10:37:41;151.03;;;8.00;;
5630;SDS011;2837;50.990;7.124;2023-03-31T10:40:20;152.17;;;8.13;;
5630;SDS011;2837;50.990;7.124;2023-03-31T10:42:49;151.97;;;7.73;;
5630;SDS011;2837;50.990;7.124;2023-03-31T10:45:28;150.20;;;7.27;;
5630;SDS011;2837;50.990;7.124;2023-03-31T10:47:56;152.90;;;7.97;;
5630;SDS011;2837;50.990;7.124;2023-03-31T10:50:28;152.77;;;7.20;;
5630;SDS011;2837;50.990;7.124;2023-03-31T10:53:03;151.47;;;7.57;;
5630;SDS011;2837;50.990;7.124;2023-03-31T10:56:20;150.23;;;7.07;;
5630;SDS011;2837;50.990;7.124;2023-03-31T11:03:50;150.60;;;7.57;;
5630;SDS011;2837;50.990;7.124;2023-03-31T11:12:20;150.30;;;8.03;;
5630;SDS011;2837;50.990;7.124;2023-03-31T11:17:53;150.20;;;7.93;;
5630;SDS011;2837;50.990;7.124;2023-03-31T11:20:30;151.73;;;8.20;;
5630;SDS011;2837;50.990;7.124;2023-03-31T11:26:00;149.40;;;7.73;;
5630;SDS011;2837;50.990;7.124;2023-03-31T11:34:01;151.27;;;8.53;;
5630;SDS011;2837;50.990;7.124;2023-03-31T11:37:11;149.00;;;8.63;;
5630;SDS011;2837;50.990;7.124;2023-03-31T11:43:22;153.07;;;9.07;;
5630;SDS011;2837;50.990;7.124;2023-03-31T11:48:50;148.97;;;8.20;;
5630;SDS011;2837;50.990;7.124;2023-03-31T11:53:56;150.97;;;8.13;;
5630;SDS011;2837;50.990;7.124;2023-03-31T11:56:34;153.40;;;8.07;;
5630;SDS011;2837;50.990;7.124;2023-03-31T11:59:03;152.57;;;7.87;;
5630;SDS011;2837;50.990;7.124;2023-03-31T12:06:47;148.97;;;7.80;;
5630;SDS011;2837;50.990;7.124;2023-03-31T12:09:21;152.60;;;9.17;;
5630;SDS011;2837;50.990;7.124;2023-03-31T12:17:30;150.03;;;8.30;;
5630;SDS011;2837;50.990;7.124;2023-03-31T12:19:58;151.63;;;8.00;;
5630;SDS011;2837;50.990;7.124;2023-03-31T12:22:38;151.23;;;8.13;;
5630;SDS011;2837;50.990;7.124;2023-03-31T12:25:12;150.27;;;8.77;;
5630;SDS011;2837;50.990;7.124;2023-03-31T12:27:42;151.67;;;8.90;;
5630;SDS011;2837;50.990;7.124;2023-03-31T12:30:34;155.00;;;9.80;;
5630;SDS011;2837;50.990;7.124;2023-03-31T12:33:24;150.07;;;8.97;;
5630;SDS011;2837;50.990;7.124;2023-03-31T12:42:04;153.37;;;8.83;;
5630;SDS011;2837;50.990;7.124;2023-03-31T12:45:05;150.57;;;8.07;;
5630;SDS011;2837;50.990;7.124;2023-03-31T12:56:23;151.77;;;9.17;;
5630;SDS011;2837;50.990;7.124;2023-03-31T12:58:49;153.67;;;9.27;;
5630;SDS011;2837;50.990;7.124;2023-03-31T13:01:18;153.47;;;9.70;;
5630;SDS011;2837;50.990;7.124;2023-03-31T13:08:59;150.10;;;9.17;;
5630;SDS011;2837;50.990;7.124;2023-03-31T13:14:16;152.37;;;9.80;;
5630;SDS011;2837;50.990;7.124;2023-03-31T13:16:49;153.03;;;9.47;;
5630;SDS011;2837;50.990;7.124;2023-03-31T13:21:57;151.67;;;8.67;;
5630;SDS011;2837;50.990;7.124;2023-03-31T13:24:24;148.97;;;8.40;;
5630;SDS011;2837;50.990;7.124;2023-03-31T13:26:52;150.53;;;8.47;;
5630;SDS011;2837;50.990;7.124;2023-03-31T13:32:19;149.60;;;7.90;;
5630;SDS011;2837;50.990;7.124;2023-03-31T13:37:29;154.47;;;7.90;;
5630;SDS011;2837;50.990;7.124;2023-03-31T13:40:25;150.17;;;7.93;;
5630;SDS011;2837;50.990;7.124;2023-03-31T13:43:02;152.70;;;8.43;;
5630;SDS011;2837;50.990;7.124;2023-03-31T13:48:36;149.37;;;7.40;;
5630;SDS011;2837;50.990;7.124;2023-03-31T14:02:44;154.40;;;9.30;;
5630;SDS011;2837;50.990;7.124;2023-03-31T14:05:23;149.10;;;7.90;;
5630;SDS011;2837;50.990;7.124;2023-03-31T14:10:47;155.37;;;9.03;;
5630;SDS011;2837;50.990;7.124;2023-03-31T14:13:15;152.73;;;9.10;;
5630;SDS011;2837;50.990;7.124;2023-03-31T14:15:44;150.63;;;8.23;;
5630;SDS011;2837;50.990;7.124;2023-03-31T14:18:15;151.73;;;8.40;;
5630;SDS011;2837;50.990;7.124;2023-03-31T14:23:58;150.43;;;8.50;;
5630;SDS011;2837;50.990;7.124;2023-03-31T14:26:46;150.40;;;7.90;;
5630;SDS011;2837;50.990;7.124;2023-03-31T14:29:21;150.00;;;8.60;;
5630;SDS011;2837;50.990;7.124;2023-03-31T14:34:41;152.40;;;8.60;;
5630;SDS011;2837;50.990;7.124;2023-03-31T14:37:16;152.10;;;8.50;;
5630;SDS011;2837;50.990;7.124;2023-03-31T14:39:45;149.93;;;8.30;;
5630;SDS011;2837;50.990;7.124;2023-03-31T14:42:17;152.27;;;8.20;;
5630;SDS011;2837;50.990;7.124;2023-03-31T14:44:45;152.53;;;8.50;;
5630;SDS011;2837;50.990;7.124;2023-03-31T14:47:22;149.40;;;9.10;;
5630;SDS011;2837;50.990;7.124;2023-03-31T14:53:00;149.20;;;7.50;;
5630;SDS011;2837;50.990;7.124;2023-03-31T14:55:27;150.83;;;8.67;;
5630;SDS011;2837;50.990;7.124;2023-03-31T14:57:55;151.57;;;8.60;;
5630;SDS011;2837;50.990;7.124;2023-03-31T15:00:25;148.97;;;7.97;;
5630;SDS011;2837;50.990;7.124;2023-03-31T15:02:55;147.73;;;7.67;;
5630;SDS011;2837;50.990;7.124;2023-03-31T15:07:55;149.00;;;7.83;;
5630;SDS011;2837;50.990;7.124;2023-03-31T15:10:22;149.50;;;7.67;;
5630;SDS011;2837;50.990;7.124;2023-03-31T15:12:48;150.47;;;8.20;;
5630;SDS011;2837;50.990;7.124;2023-03-31T15:15:15;149.37;;;8.00;;
5630;SDS011;2837;50.990;7.124;2023-03-31T15:17:44;151.67;;;8.07;;
5630;SDS011;2837;50.990;7.124;2023-03-31T15:20:23;149.47;;;8.27;;
5630;SDS011;2837;50.990;7.124;2023-03-31T15:22:52;151.07;;;8.27;;
5630;SDS011;2837;50.990;7.124;2023-03-31T15:25:30;150.37;;;8.80;;
5630;SDS011;2837;50.990;7.124;2023-03-31T15:28:08;149.10;;;7.53;;
5630;SDS011;2837;50.990;7.124;2023-03-31T15:30:38;148.97;;;7.80;;
5630;SDS011;2837;50.990;7.124;2023-03-31T15:33:07;150.10;;;8.40;;
5630;SDS011;2837;50.990;7.124;2023-03-31T15:35:40;149.70;;;7.80;;
5630;SDS011;2837;50.990;7.124;2023-03-31T15:38:06;149.77;;;7.87;;
5630;SDS011;2837;50.990;7.124;2023-03-31T15:40:38;149.70;;;7.30;;
5630;SDS011;2837;50.990;7.124;2023-03-31T15:43:07;149.37;;;7.73;;
5630;SDS011;2837;50.990;7.124;2023-03-31T15:45:44;154.20;;;8.00;;
5630;SDS011;2837;50.990;7.124;2023-03-31T15:53:48;151.10;;;8.10;;
5630;SDS011;2837;50.990;7.124;2023-03-31T15:56:23;149.63;;;7.50;;
5630;SDS011;2837;50.990;7.124;2023-03-31T15:58:58;150.20;;;7.40;;
5630;SDS011;2837;50.990;7.124;2023-03-31T16:01:27;149.27;;;7.23;;
5630;SDS011;2837;50.990;7.124;2023-03-31T16:03:58;149.60;;;7.60;;
5630;SDS011;2837;50.990;7.124;2023-03-31T16:06:34;151.03;;;7.30;;
5630;SDS011;2837;50.990;7.124;2023-03-31T16:09:08;150.87;;;7.33;;
5630;SDS011;2837;50.990;7.124;2023-03-31T16:11:39;155.03;;;8.57;;
5630;SDS011;2837;50.990;7.124;2023-03-31T16:14:07;154.10;;;7.83;;
5630;SDS011;2837;50.990;7.124;2023-03-31T16:16:39;153.27;;;7.70;;
5630;SDS011;2837;50.990;7.124;2023-03-31T16:19:11;151.60;;;7.10;;
5630;SDS011;2837;50.990;7.124;2023-03-31T16:21:39;151.90;;;7.40;;
5630;SDS011;2837;50.990;7.124;2023-03-31T16:24:08;152.30;;;8.50;;
5630;SDS011;2837;50.990;7.124;2023-03-31T16:26:34;152.27;;;7.60;;
5630;SDS011;2837;50.990;7.124;2023-03-31T16:29:01;152.87;;;7.57;;
5630;SDS011;2837;50.990;7.124;2023-03-31T16:31:32;152.90;;;7.73;;
5630;SDS011;2837;50.990;7.124;2023-03-31T16:34:04;151.27;;;7.50;;
5630;SDS011;2837;50.990;7.124;2023-03-31T16:36:34;151.47;;;7.20;;
5630;SDS011;2837;50.990;7.124;2023-03-31T16:39:01;151.07;;;7.43;;
5630;SDS011;2837;50.990;7.124;2023-03-31T16:41:29;150.73;;;7.23;;
5630;SDS011;2837;50.990;7.124;2023-03-31T16:43:59;152.27;;;7.17;;
5630;SDS011;2837;50.990;7.124;2023-03-31T16:46:24;152.90;;;7.67;;
5630;SDS011;2837;50.990;7.124;2023-03-31T16:48:51;150.30;;;7.03;;
5630;SDS011;2837;50.990;7.124;2023-03-31T16:51:17;151.00;;;7.20;;
5630;SDS011;2837;50.990;7.124;2023-03-31T16:53:43;151.20;;;7.30;;
5630;SDS011;2837;50.990;7.124;2023-03-31T16:56:09;152.17;;;7.73;;
5630;SDS011;2837;50.990;7.124;2023-03-31T16:58:36;150.80;;;7.73;;
5630;SDS011;2837;50.990;7.124;2023-03-31T17:01:03;150.87;;;7.10;;
5630;SDS011;2837;50.990;7.124;2023-03-31T17:03:30;151.30;;;7.30;;
5630;SDS011;2837;50.990;7.124;2023-03-31T17:05:56;150.43;;;6.80;;
5630;SDS011;2837;50.990;7.124;2023-03-31T17:08:23;152.27;;;7.40;;
5630;SDS011;2837;50.990;7.124;2023-03-31T17:11:00;150.77;;;6.93;;
5630;SDS011;2837;50.990;7.124;2023-03-31T17:13:28;153.23;;;7.40;;
5630;SDS011;2837;50.990;7.124;2023-03-31T17:15:54;151.97;;;8.07;;
5630;SDS011;2837;50.990;7.124;2023-03-31T17:18:20;150.77;;;7.03;;
5630;SDS011;2837;50.990;7.124;2023-03-31T17:20:46;154.20;;;8.27;;
5630;SDS011;2837;50.990;7.124;2023-03-31T17:23:11;150.70;;;7.50;;
5630;SDS011;2837;50.990;7.124;2023-03-31T17:25:37;152.47;;;7.73;;
5630;SDS011;2837;50.990;7.124;2023-03-31T17:28:03;151.57;;;7.63;;
5630;SDS011;2837;50.990;7.124;2023-03-31T17:30:29;152.10;;;7.00;;
5630;SDS011;2837;50.990;7.124;2023-03-31T17:32:56;150.80;;;7.23;;
5630;SDS011;2837;50.990;7.124;2023-03-31T17:35:22;150.60;;;6.90;;
5630;SDS011;2837;50.990;7.124;2023-03-31T17:37:48;151.37;;;7.70;;
5630;SDS011;2837;50.990;7.124;2023-03-31T17:40:17;153.67;;;7.80;;
5630;SDS011;2837;50.990;7.124;2023-03-31T17:42:46;150.77;;;7.60;;
5630;SDS011;2837;50.990;7.124;2023-03-31T17:45:12;152.50;;;7.80;;
5630;SDS011;2837;50.990;7.124;2023-03-31T17:47:38;153.17;;;8.10;;
5630;SDS011;2837;50.990;7.124;2023-03-31T17:50:04;151.77;;;7.70;;
5630;SDS011;2837;50.990;7.124;2023-03-31T17:52:30;150.80;;;7.40;;
5630;SDS011;2837;50.990;7.124;2023-03-31T17:54:57;153.93;;;7.23;;
5630;SDS011;2837;50.990;7.124;2023-03-31T17:57:23;153.50;;;7.20;;
5630;SDS011;2837;50.990;7.124;2023-03-31T17:59:49;153.27;;;8.60;;
5630;SDS011;2837;50.990;7.124;2023-03-31T18:02:15;151.93;;;7.70;;
5630;SDS011;2837;50.990;7.124;2023-03-31T18:04:40;151.37;;;7.50;;
5630;SDS011;2837;50.990;7.124;2023-03-31T18:07:06;151.27;;;7.73;;
5630;SDS011;2837;50.990;7.124;2023-03-31T18:09:32;151.03;;;7.90;;
5630;SDS011;2837;50.990;7.124;2023-03-31T18:11:58;151.20;;;7.37;;
5630;SDS011;2837;50.990;7.124;2023-03-31T18:14:24;152.67;;;7.87;;
5630;SDS011;2837;50.990;7.124;2023-03-31T18:16:49;152.93;;;8.40;;
5630;SDS011;2837;50.990;7.124;2023-03-31T18:19:15;151.87;;;7.80;;
5630;SDS011;2837;50.990;7.124;2023-03-31T18:21:41;150.87;;;7.90;;
5630;SDS011;2837;50.990;7.124;2023-03-31T18:24:06;152.03;;;7.73;;
5630;SDS011;2837;50.990;7.124;2023-03-31T18:26:32;151.47;;;7.83;;
5630;SDS011;2837;50.990;7.124;2023-03-31T18:28:57;151.47;;;7.90;;
5630;SDS011;2837;50.990;7.124;2023-03-31T18:31:23;151.20;;;7.40;;
5630;SDS011;2837;50.990;7.124;2023-03-31T18:33:51;152.10;;;8.03;;
5630;SDS011;2837;50.990;7.124;2023-03-31T18:36:18;151.57;;;7.20;;
5630;SDS011;2837;50.990;7.124;2023-03-31T18:38:46;151.83;;;7.80;;
5630;SDS011;2837;50.990;7.124;2023-03-31T18:41:13;151.23;;;7.07;;
5630;SDS011;2837;50.990;7.124;2023-03-31T18:43:39;150.47;;;7.40;;
5630;SDS011;2837;50.990;7.124;2023-03-31T18:46:05;151.37;;;8.10;;
5630;SDS011;2837;50.990;7.124;2023-03-31T18:48:30;151.13;;;7.90;;
5630;SDS011;2837;50.990;7.124;2023-03-31T18:50:56;151.27;;;7.77;;
5630;SDS011;2837;50.990;7.124;2023-03-31T18:53:22;151.47;;;8.10;;
5630;SDS011;2837;50.990;7.124;2023-03-31T18:55:52;152.90;;;8.00;;
5630;SDS011;2837;50.990;7.124;2023-03-31T18:58:19;151.40;;;7.90;;
5630;SDS011;2837;50.990;7.124;2023-03-31T19:00:45;153.30;;;8.00;;
5630;SDS011;2837;50.990;7.124;2023-03-31T19:03:11;154.70;;;8.20;;
5630;SDS011;2837;50.990;7.124;2023-03-31T19:05:37;152.97;;;7.20;;
5630;SDS011;2837;50.990;7.124;2023-03-31T19:08:03;157.97;;;7.83;;
5630;SDS011;2837;50.990;7.124;2023-03-31T19:10:29;150.90;;;7.70;;
5630;SDS011;2837;50.990;7.124;2023-03-31T19:12:54;150.87;;;7.90;;
5630;SDS011;2837;50.990;7.124;2023-03-31T19:15:20;152.30;;;8.33;;
5630;SDS011;2837;50.990;7.124;2023-03-31T19:17:46;153.47;;;8.23;;
5630;SDS011;2837;50.990;7.124;2023-03-31T19:20:12;152.27;;;7.80;;
5630;SDS011;2837;50.990;7.124;2023-03-31T19:22:44;151.67;;;7.60;;
5630;SDS011;2837;50.990;7.124;2023-03-31T19:25:11;151.47;;;7.77;;
5630;SDS011;2837;50.990;7.124;2023-03-31T19:27:37;152.17;;;7.93;;
5630;SDS011;2837;50.990;7.124;2023-03-31T19:30:04;151.27;;;8.00;;
5630;SDS011;2837;50.990;7.124;2023-03-31T19:32:30;151.47;;;7.77;;
5630;SDS011;2837;50.990;7.124;2023-03-31T19:34:56;152.17;;;8.10;;
5630;SDS011;2837;50.990;7.124;2023-03-31T19:37:22;152.07;;;7.83;;
5630;SDS011;2837;50.990;7.124;2023-03-31T19:39:48;152.90;;;7.30;;
5630;SDS011;2837;50.990;7.124;2023-03-31T19:42:13;154.53;;;7.80;;
5630;SDS011;2837;50.990;7.124;2023-03-31T19:44:39;151.97;;;8.30;;
5630;SDS011;2837;50.990;7.124;2023-03-31T19:47:07;150.50;;;7.10;;
5630;SDS011;2837;50.990;7.124;2023-03-31T19:49:33;151.93;;;8.27;;
5630;SDS011;2837;50.990;7.124;2023-03-31T19:51:58;152.77;;;7.60;;
5630;SDS011;2837;50.990;7.124;2023-03-31T19:54:24;151.03;;;7.83;;
5630;SDS011;2837;50.990;7.124;2023-03-31T19:56:49;151.93;;;7.50;;
5630;SDS011;2837;50.990;7.124;2023-03-31T19:59:15;152.50;;;7.67;;
5630;SDS011;2837;50.990;7.124;2023-03-31T20:01:41;151.00;;;7.47;;
5630;SDS011;2837;50.990;7.124;2023-03-31T20:04:06;152.57;;;7.77;;
5630;SDS011;2837;50.990;7.124;2023-03-31T20:06:32;152.63;;;7.97;;
5630;SDS011;2837;50.990;7.124;2023-03-31T20:08:59;151.40;;;7.50;;
5630;SDS011;2837;50.990;7.124;2023-03-31T20:11:27;151.40;;;7.60;;
5630;SDS011;2837;50.990;7.124;2023-03-31T20:13:55;151.03;;;7.40;;
5630;SDS011;2837;50.990;7.124;2023-03-31T20:16:22;151.77;;;7.40;;
5630;SDS011;2837;50.990;7.124;2023-03-31T20:18:51;151.70;;;8.03;;
5630;SDS011;2837;50.990;7.124;2023-03-31T20:21:23;150.20;;;7.37;;
5630;SDS011;2837;50.990;7.124;2023-03-31T20:23:51;151.90;;;7.20;;
5630;SDS011;2837;50.990;7.124;2023-03-31T20:26:17;152.27;;;7.27;;
5630;SDS011;2837;50.990;7.124;2023-03-31T20:28:45;152.07;;;8.17;;
5630;SDS011;2837;50.990;7.124;2023-03-31T20:31:16;151.90;;;8.23;;
5630;SDS011;2837;50.990;7.124;2023-03-31T20:33:44;150.87;;;7.67;;
5630;SDS011;2837;50.990;7.124;2023-03-31T20:36:14;151.77;;;7.23;;
5630;SDS011;2837;50.990;7.124;2023-03-31T20:38:42;151.33;;;7.00;;
5630;SDS011;2837;50.990;7.124;2023-03-31T20:41:09;151.67;;;7.40;;
5630;SDS011;2837;50.990;7.124;2023-03-31T20:43:35;151.77;;;7.30;;
5630;SDS011;2837;50.990;7.124;2023-03-31T20:46:02;151.60;;;8.03;;
5630;SDS011;2837;50.990;7.124;2023-03-31T20:48:36;150.97;;;7.60;;
5630;SDS011;2837;50.990;7.124;2023-03-31T20:51:04;152.03;;;8.10;;
5630;SDS011;2837;50.990;7.124;2023-03-31T20:53:31;151.63;;;7.70;;
5630;SDS011;2837;50.990;7.124;2023-03-31T20:56:05;150.90;;;7.10;;
5630;SDS011;2837;50.990;7.124;2023-03-31T20:58:32;153.33;;;7.30;;
